createdAt,value
2019-05-01T00:00:16.368Z,101429.78
2019-05-01T00:05:25.437Z,101429.69
2019-05-01T00:10:31.249Z,101433.96
2019-05-01T00:15:38.330Z,101436.87
2019-05-01T00:20:43.794Z,101433.87
2019-05-01T00:25:49.230Z,101423.55
2019-05-01T00:30:54.672Z,101416.06
2019-05-01T00:36:00.085Z,101416.12
2019-05-01T00:41:05.508Z,101409.91
2019-05-01T00:46:11.001Z,101415.23
2019-05-01T00:51:16.446Z,101411.80
2019-05-01T00:56:31.255Z,101412.33
2019-05-01T01:01:53.732Z,101405.79
2019-05-01T01:06:59.191Z,101394.26
2019-05-01T01:12:04.637Z,101401.16
2019-05-01T01:17:10.038Z,101400.23
2019-05-01T01:22:15.444Z,101400.11
2019-05-01T01:27:20.980Z,101389.83
2019-05-01T01:32:26.441Z,101385.27
2019-05-01T01:37:31.888Z,101380.02
2019-05-01T01:42:38.414Z,101377.07
2019-05-01T01:48:01.504Z,101378.22
2019-05-01T01:53:07.037Z,101368.05
2019-05-01T01:58:12.565Z,101369.05
2019-05-01T02:03:18.938Z,101365.92
2019-05-01T02:08:24.389Z,101362.67
2019-05-01T02:13:29.869Z,101352.08
2019-05-01T02:18:35.305Z,101356.78
2019-05-01T02:23:40.734Z,101353.06
2019-05-01T02:29:08.214Z,101348.70
2019-05-01T02:34:13.637Z,101351.39
2019-05-01T02:39:19.115Z,101350.11
2019-05-01T02:44:37.273Z,101344.34
2019-05-01T02:49:52.347Z,101343.61
2019-05-01T02:54:59.150Z,101351.69
2019-05-01T03:00:05.243Z,101345.37
2019-05-01T03:05:10.663Z,101341.12
2019-05-01T03:10:16.088Z,101347.09
2019-05-01T03:15:21.582Z,101347.77
2019-05-01T03:20:40.045Z,101349.25
2019-05-01T03:25:45.497Z,101338.27
2019-05-01T03:30:50.899Z,101340.24
2019-05-01T03:35:56.314Z,101330.72
2019-05-01T03:41:01.899Z,101332.85
2019-05-01T03:46:07.359Z,101329.39
2019-05-01T03:51:12.810Z,101326.15
2019-05-01T03:56:18.226Z,101328.95
2019-05-01T04:02:00.617Z,101334.44
2019-05-01T04:07:06.066Z,101324.70
2019-05-01T04:12:11.486Z,101324.66
2019-05-01T04:17:23.103Z,101325.02
2019-05-01T04:22:28.577Z,101329.91
2019-05-01T04:27:36.216Z,101328.13
2019-05-01T04:32:51.707Z,101328.75
2019-05-01T04:37:48.834Z,101331.08
2019-05-01T04:42:54.256Z,101336.59
2019-05-01T04:47:59.679Z,101334.14
2019-05-01T04:53:05.186Z,101341.05
2019-05-01T04:58:10.603Z,101341.87
2019-05-01T05:03:19.345Z,101336.16
2019-05-01T05:08:24.817Z,101339.34
2019-05-01T05:13:51.900Z,101334.42
2019-05-01T05:18:57.321Z,101337.80
2019-05-01T05:24:02.725Z,101336.30
2019-05-01T05:29:08.266Z,101340.23
2019-05-01T05:34:14.280Z,101337.17
2019-05-01T05:39:25.990Z,101339.65
2019-05-01T05:44:31.382Z,101342.84
2019-05-01T05:49:36.951Z,101344.94
2019-05-01T05:54:54.275Z,101338.64
2019-05-01T06:00:06.426Z,101343.00
2019-05-01T06:05:26.033Z,101344.98
2019-05-01T06:10:42.123Z,101345.34
2019-05-01T06:16:12.220Z,101337.53
2019-05-01T06:21:27.323Z,101337.70
2019-05-01T06:26:37.524Z,101343.09
2019-05-01T06:31:41.442Z,101341.61
2019-05-01T06:36:49.554Z,101354.27
2019-05-01T06:41:54.155Z,101343.09
2019-05-01T06:47:09.524Z,101340.19
2019-05-01T06:52:19.103Z,101338.55
2019-05-01T06:57:24.640Z,101342.00
2019-05-01T07:02:34.925Z,101339.66
2019-05-01T07:07:37.211Z,101347.58
2019-05-01T07:12:42.759Z,101347.75
2019-05-01T07:17:49.014Z,101351.95
2019-05-01T07:22:54.947Z,101352.77
2019-05-01T07:28:00.365Z,101351.06
2019-05-01T07:33:05.770Z,101352.73
2019-05-01T07:38:11.228Z,101350.00
2019-05-01T07:43:38.332Z,101355.95
2019-05-01T07:48:43.926Z,101357.86
2019-05-01T07:53:49.645Z,101362.51
2019-05-01T07:58:55.168Z,101362.50
2019-05-01T08:04:00.814Z,101355.74
2019-05-01T08:09:11.365Z,101360.34
2019-05-01T08:14:16.615Z,101361.21
2019-05-01T08:19:29.202Z,101362.21
2019-05-01T08:24:34.847Z,101365.05
2019-05-01T08:29:57.342Z,101365.33
2019-05-01T08:35:06.955Z,101373.03
2019-05-01T08:40:15.990Z,101370.06
2019-05-01T08:45:47.370Z,101373.52
2019-05-01T08:50:54.584Z,101374.14
2019-05-01T08:56:00.166Z,101375.27
2019-05-01T09:01:06.213Z,101373.33
2019-05-01T09:06:11.651Z,101363.74
2019-05-01T09:11:17.090Z,101366.11
2019-05-01T09:16:23.490Z,101359.14
2019-05-01T09:21:33.298Z,101355.16
2019-05-01T09:26:52.109Z,101358.46
2019-05-01T09:31:57.723Z,101352.39
2019-05-01T09:37:03.157Z,101354.69
2019-05-01T09:42:08.817Z,101354.48
2019-05-01T09:47:14.325Z,101353.85
2019-05-01T09:52:47.996Z,101358.16
2019-05-01T09:57:53.459Z,101353.30
2019-05-01T10:02:58.983Z,101350.27
2019-05-01T10:08:05.505Z,101344.39
2019-05-01T10:13:11.040Z,101339.52
2019-05-01T10:18:16.438Z,101332.98
2019-05-01T10:23:21.992Z,101326.17
2019-05-01T10:28:50.129Z,101318.16
2019-05-01T10:34:02.966Z,101316.41
2019-05-01T10:39:09.567Z,101313.01
2019-05-01T10:44:15.193Z,101297.84
2019-05-01T10:49:20.597Z,101293.94
2019-05-01T10:54:26.319Z,101285.80
2019-05-01T10:59:31.786Z,101287.49
2019-05-01T11:04:37.727Z,101279.53
2019-05-01T11:09:43.212Z,101276.09
2019-05-01T11:14:48.633Z,101275.23
2019-05-01T11:19:54.095Z,101263.52
2019-05-01T11:24:59.504Z,101259.86
2019-05-01T11:30:07.581Z,101257.44
2019-05-01T11:35:31.996Z,101253.35
2019-05-01T11:40:40.085Z,101247.30
2019-05-01T11:45:45.557Z,101239.36
2019-05-01T11:50:51.079Z,101230.02
2019-05-01T11:55:56.565Z,101226.91
2019-05-01T12:01:02.707Z,101222.77
2019-05-01T12:06:08.135Z,101216.95
2019-05-01T12:11:15.250Z,101211.30
2019-05-01T12:16:26.676Z,101205.21
2019-05-01T12:21:32.193Z,101201.68
2019-05-01T12:26:37.685Z,101195.23
2019-05-01T12:31:43.131Z,101190.77
2019-05-01T12:36:49.540Z,101188.19
2019-05-01T12:41:59.174Z,101181.32
2019-05-01T12:47:12.857Z,101184.59
2019-05-01T12:52:33.354Z,101177.52
2019-05-01T12:57:38.810Z,101174.20
2019-05-01T13:02:44.307Z,101170.77
2019-05-01T13:07:52.364Z,101158.66
2019-05-01T13:12:57.832Z,101154.34
2019-05-01T13:18:06.368Z,101145.30
2019-05-01T13:23:12.063Z,101142.79
2019-05-01T13:28:39.746Z,101137.73
2019-05-01T13:33:45.349Z,101133.25
2019-05-01T13:38:50.885Z,101114.77
2019-05-01T13:43:56.419Z,101111.29
2019-05-01T13:49:02.140Z,101115.61
2019-05-01T13:54:08.703Z,101113.52
2019-05-01T13:59:15.301Z,101108.25
2019-05-01T14:04:22.538Z,101106.91
2019-05-01T14:09:31.048Z,101091.46
2019-05-01T14:14:36.552Z,101087.84
2019-05-01T14:19:44.238Z,101082.36
2019-05-01T14:24:52.733Z,101068.88
2019-05-01T14:29:58.172Z,101069.25
2019-05-01T14:35:03.906Z,101062.02
2019-05-01T14:40:09.333Z,101062.14
2019-05-01T14:45:14.760Z,101057.79
2019-05-01T14:50:20.330Z,101056.59
2019-05-01T14:55:25.778Z,101046.78
2019-05-01T15:00:31.260Z,101041.30
2019-05-01T15:05:36.907Z,101040.18
2019-05-01T15:10:42.400Z,101035.88
2019-05-01T15:15:54.715Z,101033.53
2019-05-01T15:21:00.361Z,101021.14
2019-05-01T15:26:05.810Z,101018.09
2019-05-01T15:31:11.228Z,101015.70
2019-05-01T15:36:16.722Z,101010.71
2019-05-01T15:41:44.049Z,101003.78
2019-05-01T15:46:49.588Z,100998.65
2019-05-01T15:51:55.137Z,101001.88
2019-05-01T15:57:00.693Z,101000.96
2019-05-01T16:02:06.218Z,100993.41
2019-05-01T16:07:11.802Z,100986.82
2019-05-01T16:12:40.379Z,100981.41
2019-05-01T16:17:45.948Z,100973.10
2019-05-01T16:22:51.480Z,100979.51
2019-05-01T16:27:57.334Z,100972.23
2019-05-01T16:33:03.352Z,100962.36
2019-05-01T16:38:22.720Z,100965.28
2019-05-01T16:43:20.551Z,100959.47
2019-05-01T16:48:26.329Z,100962.34
2019-05-01T16:53:31.942Z,100955.23
2019-05-01T16:58:37.964Z,100946.64
2019-05-01T17:04:02.471Z,100951.15
2019-05-01T17:09:28.411Z,100942.00
2019-05-01T17:14:34.177Z,100933.35
2019-05-01T17:19:39.725Z,100928.93
2019-05-01T17:24:45.497Z,100926.70
2019-05-01T17:29:51.111Z,100930.33
2019-05-01T17:34:56.534Z,100933.71
2019-05-01T17:40:02.145Z,100932.49
2019-05-01T17:45:08.383Z,100935.44
2019-05-01T17:50:16.467Z,100933.58
2019-05-01T17:55:21.417Z,100930.47
2019-05-01T18:00:39.203Z,100928.11
2019-05-01T18:06:02.910Z,100928.31
2019-05-01T18:11:09.394Z,100928.16
2019-05-01T18:16:15.741Z,100929.69
2019-05-01T18:21:21.707Z,100919.22
2019-05-01T18:26:46.241Z,100924.94
2019-05-01T18:31:51.944Z,100925.98
2019-05-01T18:37:03.875Z,100922.88
2019-05-01T18:42:12.168Z,100922.56
2019-05-01T18:54:48.802Z,100921.20
2019-05-01T19:00:12.119Z,100927.34
2019-05-01T19:19:30.979Z,100926.91
2019-05-01T19:25:43.995Z,100932.03
2019-05-01T19:43:40.569Z,100925.42
2019-05-01T19:49:00.959Z,100928.92
2019-05-01T19:54:07.699Z,100926.84
2019-05-01T19:59:50.584Z,100929.98
2019-05-01T20:05:29.020Z,100924.54
2019-05-01T20:10:36.191Z,100923.33
2019-05-01T20:15:42.279Z,100917.25
2019-05-01T20:21:23.607Z,100913.79
2019-05-01T20:26:35.526Z,100919.25
2019-05-01T20:38:37.238Z,100909.55
2019-05-01T20:43:47.039Z,100911.02
2019-05-01T20:48:55.857Z,100907.48
2019-05-01T20:54:02.821Z,100905.41
2019-05-01T20:59:08.358Z,100902.08
2019-05-01T21:04:26.716Z,100901.67
2019-05-01T21:09:46.733Z,100898.48
2019-05-01T21:14:45.276Z,100893.95
2019-05-01T21:19:49.751Z,100893.63
2019-05-01T21:24:55.225Z,100897.13
2019-05-01T21:30:00.592Z,100900.17
2019-05-01T21:35:06.482Z,100895.09
2019-05-01T21:40:12.905Z,100902.52
2019-05-01T21:45:18.469Z,100898.09
2019-05-01T21:50:26.363Z,100903.90
2019-05-01T21:55:32.091Z,100903.44
2019-05-01T22:00:39.307Z,100897.35
2019-05-01T22:05:44.766Z,100897.17
2019-05-01T22:10:52.236Z,100905.17
2019-05-01T22:16:02.761Z,100897.43
2019-05-01T22:21:32.843Z,100898.53
2019-05-01T22:26:41.297Z,100901.20
2019-05-01T22:31:57.531Z,100892.60
2019-05-01T22:37:02.726Z,100894.86
2019-05-01T22:42:08.349Z,100895.86
2019-05-01T22:47:15.107Z,100894.45
2019-05-01T22:52:20.993Z,100894.84
2019-05-01T22:57:26.429Z,100884.06
2019-05-01T23:02:38.409Z,100876.98
2019-05-01T23:07:43.843Z,100874.23
2019-05-01T23:12:49.357Z,100871.22
2019-05-01T23:17:54.958Z,100861.66
2019-05-01T23:23:00.360Z,100873.21
2019-05-01T23:28:06.128Z,100871.04
2019-05-01T23:33:11.820Z,100868.93
2019-05-01T23:38:17.227Z,100858.39
2019-05-01T23:43:23.000Z,100856.16
2019-05-01T23:48:29.905Z,100857.48
2019-05-01T23:53:35.348Z,100851.23
2019-05-01T23:58:40.809Z,100847.55
